sensor_id;sensor_type;location;lat;lon;timestamp;P1;durP1;ratioP1;P2;durP2;ratioP2
24305;SDS011;12423;48.768;8.850;2024-02-26T00:01:23;9.82;;;4.80;;
24305;SDS011;12423;48.768;8.850;2024-02-26T00:03:50;7.88;;;4.07;;
24305;SDS011;12423;48.768;8.850;2024-02-26T00:06:18;8.80;;;4.32;;
24305;SDS011;12423;48.768;8.850;2024-02-26T00:08:46;10.48;;;4.30;;
24305;SDS011;12423;48.768;8.850;2024-02-26T00:11:14;8.07;;;4.82;;
24305;SDS011;12423;48.768;8.850;2024-02-26T00:13:43;9.18;;;5.03;;
24305;SDS011;12423;48.768;8.850;2024-02-26T00:16:11;8.82;;;4.43;;
24305;SDS011;12423;48.768;8.850;2024-02-26T00:18:38;8.00;;;4.10;;
24305;SDS011;12423;48.768;8.850;2024-02-26T00:21:06;9.30;;;4.40;;
24305;SDS011;12423;48.768;8.850;2024-02-26T00:23:34;8.80;;;4.63;;
24305;SDS011;12423;48.768;8.850;2024-02-26T00:26:01;9.45;;;4.22;;
24305;SDS011;12423;48.768;8.850;2024-02-26T00:28:30;9.20;;;4.45;;
24305;SDS011;12423;48.768;8.850;2024-02-26T00:30:59;7.80;;;3.60;;
24305;SDS011;12423;48.768;8.850;2024-02-26T00:33:27;9.98;;;4.30;;
24305;SDS011;12423;48.768;8.850;2024-02-26T00:35:55;6.93;;;3.67;;
24305;SDS011;12423;48.768;8.850;2024-02-26T00:38:22;7.72;;;3.78;;
24305;SDS011;12423;48.768;8.850;2024-02-26T00:40:50;7.78;;;3.88;;
24305;SDS011;12423;48.768;8.850;2024-02-26T00:43:18;9.45;;;3.70;;
24305;SDS011;12423;48.768;8.850;2024-02-26T00:45:45;7.30;;;3.58;;
24305;SDS011;12423;48.768;8.850;2024-02-26T00:48:14;7.20;;;3.65;;
24305;SDS011;12423;48.768;8.850;2024-02-26T00:50:42;6.80;;;3.75;;
24305;SDS011;12423;48.768;8.850;2024-02-26T00:53:10;9.98;;;3.67;;
24305;SDS011;12423;48.768;8.850;2024-02-26T00:55:38;6.55;;;3.42;;
24305;SDS011;12423;48.768;8.850;2024-02-26T00:58:05;7.45;;;4.07;;
24305;SDS011;12423;48.768;8.850;2024-02-26T01:00:33;10.95;;;3.80;;
24305;SDS011;12423;48.768;8.850;2024-02-26T01:03:00;6.75;;;3.25;;
24305;SDS011;12423;48.768;8.850;2024-02-26T01:05:31;5.75;;;2.97;;
24305;SDS011;12423;48.768;8.850;2024-02-26T01:07:58;7.53;;;3.42;;
24305;SDS011;12423;48.768;8.850;2024-02-26T01:10:26;4.63;;;2.70;;
24305;SDS011;12423;48.768;8.850;2024-02-26T01:12:54;4.05;;;2.13;;
24305;SDS011;12423;48.768;8.850;2024-02-26T01:15:21;5.65;;;2.50;;
24305;SDS011;12423;48.768;8.850;2024-02-26T01:17:50;5.72;;;2.95;;
24305;SDS011;12423;48.768;8.850;2024-02-26T01:20:18;5.85;;;2.22;;
24305;SDS011;12423;48.768;8.850;2024-02-26T01:22:47;3.95;;;1.60;;
24305;SDS011;12423;48.768;8.850;2024-02-26T01:25:14;1.30;;;0.70;;
24305;SDS011;12423;48.768;8.850;2024-02-26T01:27:42;1.88;;;0.88;;
24305;SDS011;12423;48.768;8.850;2024-02-26T01:30:10;2.35;;;0.90;;
24305;SDS011;12423;48.768;8.850;2024-02-26T01:32:38;2.60;;;1.10;;
24305;SDS011;12423;48.768;8.850;2024-02-26T01:35:06;4.75;;;2.42;;
24305;SDS011;12423;48.768;8.850;2024-02-26T01:37:36;5.47;;;2.53;;
24305;SDS011;12423;48.768;8.850;2024-02-26T01:40:06;4.82;;;2.58;;
24305;SDS011;12423;48.768;8.850;2024-02-26T01:42:34;7.95;;;2.38;;
24305;SDS011;12423;48.768;8.850;2024-02-26T01:45:02;5.30;;;3.08;;
24305;SDS011;12423;48.768;8.850;2024-02-26T01:47:30;5.72;;;2.47;;
24305;SDS011;12423;48.768;8.850;2024-02-26T01:49:58;4.32;;;2.40;;
24305;SDS011;12423;48.768;8.850;2024-02-26T01:52:25;3.85;;;2.13;;
24305;SDS011;12423;48.768;8.850;2024-02-26T01:54:53;3.72;;;1.75;;
24305;SDS011;12423;48.768;8.850;2024-02-26T01:57:22;3.55;;;2.08;;
24305;SDS011;12423;48.768;8.850;2024-02-26T01:59:50;2.78;;;1.17;;
24305;SDS011;12423;48.768;8.850;2024-02-26T02:02:17;3.88;;;1.23;;
24305;SDS011;12423;48.768;8.850;2024-02-26T02:04:45;2.85;;;1.10;;
24305;SDS011;12423;48.768;8.850;2024-02-26T02:07:13;2.80;;;1.20;;
24305;SDS011;12423;48.768;8.850;2024-02-26T02:09:40;4.70;;;1.88;;
24305;SDS011;12423;48.768;8.850;2024-02-26T02:12:08;5.50;;;2.33;;
24305;SDS011;12423;48.768;8.850;2024-02-26T02:14:38;4.50;;;2.08;;
24305;SDS011;12423;48.768;8.850;2024-02-26T02:17:05;4.22;;;1.88;;
24305;SDS011;12423;48.768;8.850;2024-02-26T02:19:33;3.80;;;2.30;;
24305;SDS011;12423;48.768;8.850;2024-02-26T02:22:02;5.15;;;2.50;;
24305;SDS011;12423;48.768;8.850;2024-02-26T02:24:30;3.65;;;1.70;;
24305;SDS011;12423;48.768;8.850;2024-02-26T02:26:57;3.75;;;2.13;;
24305;SDS011;12423;48.768;8.850;2024-02-26T02:29:25;3.22;;;1.70;;
24305;SDS011;12423;48.768;8.850;2024-02-26T02:31:53;2.17;;;0.98;;
24305;SDS011;12423;48.768;8.850;2024-02-26T02:34:21;0.63;;;0.43;;
24305;SDS011;12423;48.768;8.850;2024-02-26T02:36:49;1.90;;;0.60;;
24305;SDS011;12423;48.768;8.850;2024-02-26T02:39:20;1.35;;;0.70;;
24305;SDS011;12423;48.768;8.850;2024-02-26T02:44:15;0.75;;;0.40;;
24305;SDS011;12423;48.768;8.850;2024-02-26T02:46:43;0.57;;;0.38;;
24305;SDS011;12423;48.768;8.850;2024-02-26T02:49:10;1.02;;;0.60;;
24305;SDS011;12423;48.768;8.850;2024-02-26T02:51:38;0.50;;;0.30;;
24305;SDS011;12423;48.768;8.850;2024-02-26T02:54:05;1.98;;;0.80;;
24305;SDS011;12423;48.768;8.850;2024-02-26T02:56:34;1.15;;;0.50;;
24305;SDS011;12423;48.768;8.850;2024-02-26T03:01:30;1.17;;;0.70;;
24305;SDS011;12423;48.768;8.850;2024-02-26T03:03:57;1.63;;;0.60;;
24305;SDS011;12423;48.768;8.850;2024-02-26T03:06:25;1.52;;;0.60;;
24305;SDS011;12423;48.768;8.850;2024-02-26T03:08:54;2.35;;;0.80;;
24305;SDS011;12423;48.768;8.850;2024-02-26T03:11:21;0.60;;;0.47;;
24305;SDS011;12423;48.768;8.850;2024-02-26T03:13:50;1.08;;;0.60;;
24305;SDS011;12423;48.768;8.850;2024-02-26T03:16:18;1.55;;;0.65;;
24305;SDS011;12423;48.768;8.850;2024-02-26T03:18:46;2.95;;;0.50;;
24305;SDS011;12423;48.768;8.850;2024-02-26T03:21:13;1.20;;;0.57;;
24305;SDS011;12423;48.768;8.850;2024-02-26T03:23:41;0.60;;;0.55;;
24305;SDS011;12423;48.768;8.850;2024-02-26T03:26:08;1.02;;;0.50;;
24305;SDS011;12423;48.768;8.850;2024-02-26T03:28:40;0.73;;;0.50;;
24305;SDS011;12423;48.768;8.850;2024-02-26T03:31:09;0.47;;;0.43;;
24305;SDS011;12423;48.768;8.850;2024-02-26T03:36:04;1.20;;;0.40;;
24305;SDS011;12423;48.768;8.850;2024-02-26T03:38:33;0.77;;;0.40;;
24305;SDS011;12423;48.768;8.850;2024-02-26T03:41:01;1.50;;;0.68;;
24305;SDS011;12423;48.768;8.850;2024-02-26T03:43:28;1.10;;;0.55;;
24305;SDS011;12423;48.768;8.850;2024-02-26T03:45:56;1.25;;;0.50;;
24305;SDS011;12423;48.768;8.850;2024-02-26T03:48:25;1.35;;;0.50;;
24305;SDS011;12423;48.768;8.850;2024-02-26T03:50:53;0.77;;;0.32;;
24305;SDS011;12423;48.768;8.850;2024-02-26T03:53:21;1.55;;;0.60;;
24305;SDS011;12423;48.768;8.850;2024-02-26T03:55:48;1.58;;;0.70;;
24305;SDS011;12423;48.768;8.850;2024-02-26T03:58:18;1.42;;;0.50;;
24305;SDS011;12423;48.768;8.850;2024-02-26T04:00:45;1.45;;;0.50;;
24305;SDS011;12423;48.768;8.850;2024-02-26T04:03:14;0.80;;;0.57;;
24305;SDS011;12423;48.768;8.850;2024-02-26T04:05:43;1.42;;;0.50;;
24305;SDS011;12423;48.768;8.850;2024-02-26T04:10:39;2.95;;;0.63;;
24305;SDS011;12423;48.768;8.850;2024-02-26T04:13:07;0.77;;;0.47;;
24305;SDS011;12423;48.768;8.850;2024-02-26T04:15:34;0.90;;;0.50;;
24305;SDS011;12423;48.768;8.850;2024-02-26T04:18:02;1.23;;;0.63;;
24305;SDS011;12423;48.768;8.850;2024-02-26T04:20:30;1.00;;;0.50;;
24305;SDS011;12423;48.768;8.850;2024-02-26T04:22:59;2.67;;;0.93;;
24305;SDS011;12423;48.768;8.850;2024-02-26T04:25:26;0.65;;;0.50;;
24305;SDS011;12423;48.768;8.850;2024-02-26T04:27:55;1.25;;;0.43;;
24305;SDS011;12423;48.768;8.850;2024-02-26T04:30:22;1.35;;;0.70;;
24305;SDS011;12423;48.768;8.850;2024-02-26T04:32:50;1.45;;;0.70;;
24305;SDS011;12423;48.768;8.850;2024-02-26T04:35:18;0.82;;;0.50;;
24305;SDS011;12423;48.768;8.850;2024-02-26T04:37:46;1.23;;;0.60;;
24305;SDS011;12423;48.768;8.850;2024-02-26T04:40:15;1.35;;;0.80;;
24305;SDS011;12423;48.768;8.850;2024-02-26T04:42:42;1.45;;;0.88;;
24305;SDS011;12423;48.768;8.850;2024-02-26T04:45:10;1.40;;;0.70;;
24305;SDS011;12423;48.768;8.850;2024-02-26T04:47:38;1.35;;;0.65;;
24305;SDS011;12423;48.768;8.850;2024-02-26T04:50:06;2.60;;;0.75;;
24305;SDS011;12423;48.768;8.850;2024-02-26T04:52:33;1.77;;;0.80;;
24305;SDS011;12423;48.768;8.850;2024-02-26T04:55:01;1.23;;;0.65;;
24305;SDS011;12423;48.768;8.850;2024-02-26T04:57:31;1.47;;;0.80;;
24305;SDS011;12423;48.768;8.850;2024-02-26T04:59:58;2.85;;;0.70;;
24305;SDS011;12423;48.768;8.850;2024-02-26T05:02:26;1.92;;;0.73;;
24305;SDS011;12423;48.768;8.850;2024-02-26T05:04:54;1.63;;;0.65;;
24305;SDS011;12423;48.768;8.850;2024-02-26T05:07:21;1.05;;;0.60;;
24305;SDS011;12423;48.768;8.850;2024-02-26T05:09:49;0.65;;;0.55;;
24305;SDS011;12423;48.768;8.850;2024-02-26T05:12:16;3.15;;;0.80;;
24305;SDS011;12423;48.768;8.850;2024-02-26T05:14:45;2.13;;;1.00;;
24305;SDS011;12423;48.768;8.850;2024-02-26T05:17:13;2.97;;;1.33;;
24305;SDS011;12423;48.768;8.850;2024-02-26T05:19:41;4.35;;;1.25;;
24305;SDS011;12423;48.768;8.850;2024-02-26T05:22:08;2.25;;;1.10;;
24305;SDS011;12423;48.768;8.850;2024-02-26T05:24:37;1.55;;;0.70;;
24305;SDS011;12423;48.768;8.850;2024-02-26T05:27:04;1.48;;;0.70;;
24305;SDS011;12423;48.768;8.850;2024-02-26T05:29:32;0.60;;;0.43;;
24305;SDS011;12423;48.768;8.850;2024-02-26T05:32:01;2.95;;;0.77;;
24305;SDS011;12423;48.768;8.850;2024-02-26T05:34:28;2.15;;;0.68;;
24305;SDS011;12423;48.768;8.850;2024-02-26T05:36:57;0.98;;;0.57;;
24305;SDS011;12423;48.768;8.850;2024-02-26T05:39:24;1.58;;;0.60;;
24305;SDS011;12423;48.768;8.850;2024-02-26T05:41:52;1.85;;;1.00;;
24305;SDS011;12423;48.768;8.850;2024-02-26T05:44:20;2.03;;;0.70;;
24305;SDS011;12423;48.768;8.850;2024-02-26T05:46:47;1.10;;;0.63;;
24305;SDS011;12423;48.768;8.850;2024-02-26T05:49:16;1.65;;;0.75;;
24305;SDS011;12423;48.768;8.850;2024-02-26T05:51:44;1.60;;;0.77;;
24305;SDS011;12423;48.768;8.850;2024-02-26T05:54:11;1.02;;;0.57;;
24305;SDS011;12423;48.768;8.850;2024-02-26T05:56:40;2.23;;;0.80;;
24305;SDS011;12423;48.768;8.850;2024-02-26T05:59:07;1.75;;;1.00;;
24305;SDS011;12423;48.768;8.850;2024-02-26T06:01:35;1.60;;;0.65;;
24305;SDS011;12423;48.768;8.850;2024-02-26T06:04:03;1.35;;;0.60;;
24305;SDS011;12423;48.768;8.850;2024-02-26T06:06:32;1.50;;;0.63;;
24305;SDS011;12423;48.768;8.850;2024-02-26T06:08:59;1.73;;;1.00;;
24305;SDS011;12423;48.768;8.850;2024-02-26T06:11:27;2.40;;;0.90;;
24305;SDS011;12423;48.768;8.850;2024-02-26T06:13:55;1.25;;;0.47;;
24305;SDS011;12423;48.768;8.850;2024-02-26T06:16:22;2.42;;;1.30;;
24305;SDS011;12423;48.768;8.850;2024-02-26T06:18:50;1.48;;;0.70;;
24305;SDS011;12423;48.768;8.850;2024-02-26T06:21:18;2.45;;;1.00;;
24305;SDS011;12423;48.768;8.850;2024-02-26T06:23:47;2.72;;;1.10;;
24305;SDS011;12423;48.768;8.850;2024-02-26T06:26:15;3.17;;;1.50;;
24305;SDS011;12423;48.768;8.850;2024-02-26T06:28:43;2.80;;;1.33;;
24305;SDS011;12423;48.768;8.850;2024-02-26T06:31:11;3.13;;;1.42;;
24305;SDS011;12423;48.768;8.850;2024-02-26T06:33:38;6.38;;;1.13;;
24305;SDS011;12423;48.768;8.850;2024-02-26T06:36:06;1.70;;;0.95;;
24305;SDS011;12423;48.768;8.850;2024-02-26T06:38:34;3.80;;;1.65;;
24305;SDS011;12423;48.768;8.850;2024-02-26T06:41:03;1.55;;;0.70;;
24305;SDS011;12423;48.768;8.850;2024-02-26T06:45:58;1.80;;;0.65;;
24305;SDS011;12423;48.768;8.850;2024-02-26T06:48:25;0.70;;;0.30;;
24305;SDS011;12423;48.768;8.850;2024-02-26T06:50:53;0.10;;;0.10;;
24305;SDS011;12423;48.768;8.850;2024-02-26T06:53:21;0.00;;;0.00;;
24305;SDS011;12423;48.768;8.850;2024-02-26T06:55:48;0.00;;;0.00;;
24305;SDS011;12423;48.768;8.850;2024-02-26T06:58:18;0.00;;;0.00;;
24305;SDS011;12423;48.768;8.850;2024-02-26T07:00:45;0.10;;;0.10;;
24305;SDS011;12423;48.768;8.850;2024-02-26T07:03:13;0.10;;;0.10;;
24305;SDS011;12423;48.768;8.850;2024-02-26T07:05:41;0.10;;;0.10;;
24305;SDS011;12423;48.768;8.850;2024-02-26T07:08:11;0.00;;;0.00;;
24305;SDS011;12423;48.768;8.850;2024-02-26T07:10:39;0.10;;;0.10;;
24305;SDS011;12423;48.768;8.850;2024-02-26T07:13:06;0.00;;;0.00;;
24305;SDS011;12423;48.768;8.850;2024-02-26T07:15:35;0.00;;;0.00;;
24305;SDS011;12423;48.768;8.850;2024-02-26T07:20:31;0.00;;;0.00;;
24305;SDS011;12423;48.768;8.850;2024-02-26T07:22:58;0.00;;;0.00;;
24305;SDS011;12423;48.768;8.850;2024-02-26T07:25:26;0.08;;;0.08;;
24305;SDS011;12423;48.768;8.850;2024-02-26T07:27:54;0.00;;;0.00;;
24305;SDS011;12423;48.768;8.850;2024-02-26T07:30:21;0.03;;;0.03;;
24305;SDS011;12423;48.768;8.850;2024-02-26T07:32:52;0.10;;;0.10;;
24305;SDS011;12423;48.768;8.850;2024-02-26T07:35:19;0.10;;;0.10;;
24305;SDS011;12423;48.768;8.850;2024-02-26T07:37:47;0.00;;;0.00;;
24305;SDS011;12423;48.768;8.850;2024-02-26T07:40:15;0.00;;;0.00;;
24305;SDS011;12423;48.768;8.850;2024-02-26T07:42:43;0.00;;;0.00;;
24305;SDS011;12423;48.768;8.850;2024-02-26T07:45:10;0.22;;;0.22;;
24305;SDS011;12423;48.768;8.850;2024-02-26T07:47:38;0.00;;;0.00;;
24305;SDS011;12423;48.768;8.850;2024-02-26T07:52:36;0.25;;;0.25;;
24305;SDS011;12423;48.768;8.850;2024-02-26T07:55:04;0.10;;;0.10;;
24305;SDS011;12423;48.768;8.850;2024-02-26T07:57:33;0.10;;;0.10;;
24305;SDS011;12423;48.768;8.850;2024-02-26T08:00:01;0.20;;;0.20;;
24305;SDS011;12423;48.768;8.850;2024-02-26T08:02:29;2.08;;;1.73;;
24305;SDS011;12423;48.768;8.850;2024-02-26T08:04:57;0.28;;;0.28;;
24305;SDS011;12423;48.768;8.850;2024-02-26T08:07:25;0.00;;;0.00;;
24305;SDS011;12423;48.768;8.850;2024-02-26T08:09:54;0.08;;;0.08;;
24305;SDS011;12423;48.768;8.850;2024-02-26T08:12:21;0.25;;;0.25;;
24305;SDS011;12423;48.768;8.850;2024-02-26T08:14:49;0.43;;;0.43;;
24305;SDS011;12423;48.768;8.850;2024-02-26T08:17:16;0.00;;;0.00;;
24305;SDS011;12423;48.768;8.850;2024-02-26T08:19:44;0.13;;;0.13;;
24305;SDS011;12423;48.768;8.850;2024-02-26T08:22:12;0.30;;;0.30;;
24305;SDS011;12423;48.768;8.850;2024-02-26T08:24:42;0.47;;;0.45;;
24305;SDS011;12423;48.768;8.850;2024-02-26T08:27:12;0.10;;;0.10;;
24305;SDS011;12423;48.768;8.850;2024-02-26T08:29:39;0.40;;;0.40;;
24305;SDS011;12423;48.768;8.850;2024-02-26T08:32:07;0.35;;;0.35;;
24305;SDS011;12423;48.768;8.850;2024-02-26T08:34:34;0.15;;;0.15;;
24305;SDS011;12423;48.768;8.850;2024-02-26T08:37:02;0.10;;;0.10;;
24305;SDS011;12423;48.768;8.850;2024-02-26T08:39:30;0.10;;;0.10;;
24305;SDS011;12423;48.768;8.850;2024-02-26T08:41:57;0.00;;;0.00;;
24305;SDS011;12423;48.768;8.850;2024-02-26T08:44:26;0.03;;;0.03;;
24305;SDS011;12423;48.768;8.850;2024-02-26T08:46:54;0.10;;;0.10;;
24305;SDS011;12423;48.768;8.850;2024-02-26T08:49:21;0.20;;;0.20;;
24305;SDS011;12423;48.768;8.850;2024-02-26T08:51:50;0.10;;;0.10;;
24305;SDS011;12423;48.768;8.850;2024-02-26T08:54:18;0.00;;;0.00;;
24305;SDS011;12423;48.768;8.850;2024-02-26T08:56:45;0.00;;;0.00;;
24305;SDS011;12423;48.768;8.850;2024-02-26T08:59:13;0.13;;;0.13;;
24305;SDS011;12423;48.768;8.850;2024-02-26T09:01:44;2.35;;;0.55;;
24305;SDS011;12423;48.768;8.850;2024-02-26T09:04:11;0.17;;;0.17;;
24305;SDS011;12423;48.768;8.850;2024-02-26T09:06:39;0.00;;;0.00;;
24305;SDS011;12423;48.768;8.850;2024-02-26T09:09:06;0.88;;;0.55;;
24305;SDS011;12423;48.768;8.850;2024-02-26T09:11:34;0.03;;;0.03;;
24305;SDS011;12423;48.768;8.850;2024-02-26T09:14:01;0.60;;;0.50;;
24305;SDS011;12423;48.768;8.850;2024-02-26T09:16:30;0.40;;;0.38;;
24305;SDS011;12423;48.768;8.850;2024-02-26T09:18:59;0.00;;;0.00;;
24305;SDS011;12423;48.768;8.850;2024-02-26T09:21:26;0.10;;;0.10;;
24305;SDS011;12423;48.768;8.850;2024-02-26T09:23:54;0.05;;;0.05;;
24305;SDS011;12423;48.768;8.850;2024-02-26T09:26:22;0.00;;;0.00;;
24305;SDS011;12423;48.768;8.850;2024-02-26T09:28:49;0.03;;;0.03;;
24305;SDS011;12423;48.768;8.850;2024-02-26T09:31:17;0.10;;;0.10;;
24305;SDS011;12423;48.768;8.850;2024-02-26T09:33:45;0.20;;;0.20;;
24305;SDS011;12423;48.768;8.850;2024-02-26T09:36:14;0.03;;;0.03;;
24305;SDS011;12423;48.768;8.850;2024-02-26T09:38:42;0.15;;;0.15;;
24305;SDS011;12423;48.768;8.850;2024-02-26T09:41:22;0.00;;;0.00;;
24305;SDS011;12423;48.768;8.850;2024-02-26T09:43:49;0.10;;;0.10;;
24305;SDS011;12423;48.768;8.850;2024-02-26T09:46:19;0.10;;;0.10;;
24305;SDS011;12423;48.768;8.850;2024-02-26T09:48:47;0.03;;;0.03;;
24305;SDS011;12423;48.768;8.850;2024-02-26T09:51:16;0.15;;;0.15;;
24305;SDS011;12423;48.768;8.850;2024-02-26T09:53:44;0.05;;;0.05;;
24305;SDS011;12423;48.768;8.850;2024-02-26T09:56:14;0.30;;;0.30;;
24305;SDS011;12423;48.768;8.850;2024-02-26T09:58:42;0.10;;;0.10;;
24305;SDS011;12423;48.768;8.850;2024-02-26T10:01:13;0.00;;;0.00;;
24305;SDS011;12423;48.768;8.850;2024-02-26T10:03:42;0.10;;;0.10;;
24305;SDS011;12423;48.768;8.850;2024-02-26T10:06:11;0.00;;;0.00;;
24305;SDS011;12423;48.768;8.850;2024-02-26T10:08:40;0.10;;;0.10;;
24305;SDS011;12423;48.768;8.850;2024-02-26T10:11:09;1.55;;;0.40;;
24305;SDS011;12423;48.768;8.850;2024-02-26T10:13:37;0.60;;;0.50;;
24305;SDS011;12423;48.768;8.850;2024-02-26T10:16:05;0.55;;;0.52;;
24305;SDS011;12423;48.768;8.850;2024-02-26T10:18:44;0.00;;;0.00;;
24305;SDS011;12423;48.768;8.850;2024-02-26T10:21:24;0.13;;;0.13;;
24305;SDS011;12423;48.768;8.850;2024-02-26T10:23:53;0.00;;;0.00;;
24305;SDS011;12423;48.768;8.850;2024-02-26T10:28:49;0.00;;;0.00;;
24305;SDS011;12423;48.768;8.850;2024-02-26T10:31:21;0.00;;;0.00;;
24305;SDS011;12423;48.768;8.850;2024-02-26T10:33:49;0.20;;;0.20;;
24305;SDS011;12423;48.768;8.850;2024-02-26T10:36:17;0.52;;;0.32;;
24305;SDS011;12423;48.768;8.850;2024-02-26T10:38:45;0.00;;;0.00;;
24305;SDS011;12423;48.768;8.850;2024-02-26T10:41:14;0.52;;;0.40;;
24305;SDS011;12423;48.768;8.850;2024-02-26T10:43:42;0.17;;;0.17;;
24305;SDS011;12423;48.768;8.850;2024-02-26T10:46:10;0.10;;;0.10;;
24305;SDS011;12423;48.768;8.850;2024-02-26T10:48:38;0.10;;;0.10;;
24305;SDS011;12423;48.768;8.850;2024-02-26T10:51:06;0.00;;;0.00;;
24305;SDS011;12423;48.768;8.850;2024-02-26T10:53:36;0.80;;;0.55;;
24305;SDS011;12423;48.768;8.850;2024-02-26T10:56:04;0.08;;;0.08;;
24305;SDS011;12423;48.768;8.850;2024-02-26T10:58:34;0.00;;;0.00;;
24305;SDS011;12423;48.768;8.850;2024-02-26T11:01:02;0.13;;;0.13;;
24305;SDS011;12423;48.768;8.850;2024-02-26T11:03:31;0.00;;;0.00;;
24305;SDS011;12423;48.768;8.850;2024-02-26T11:06:01;0.00;;;0.00;;
24305;SDS011;12423;48.768;8.850;2024-02-26T11:08:29;0.00;;;0.00;;
24305;SDS011;12423;48.768;8.850;2024-02-26T11:10:58;0.28;;;0.28;;
24305;SDS011;12423;48.768;8.850;2024-02-26T11:13:27;0.00;;;0.00;;
24305;SDS011;12423;48.768;8.850;2024-02-26T11:15:57;0.52;;;0.52;;
24305;SDS011;12423;48.768;8.850;2024-02-26T11:18:26;0.00;;;0.00;;
24305;SDS011;12423;48.768;8.850;2024-02-26T11:20:54;1.08;;;0.43;;
24305;SDS011;12423;48.768;8.850;2024-02-26T11:23:24;2.20;;;0.73;;
24305;SDS011;12423;48.768;8.850;2024-02-26T11:25:52;0.10;;;0.10;;
24305;SDS011;12423;48.768;8.850;2024-02-26T11:28:21;0.00;;;0.00;;
24305;SDS011;12423;48.768;8.850;2024-02-26T11:30:49;0.08;;;0.08;;
24305;SDS011;12423;48.768;8.850;2024-02-26T11:33:18;0.00;;;0.00;;
24305;SDS011;12423;48.768;8.850;2024-02-26T11:35:48;0.63;;;0.40;;
24305;SDS011;12423;48.768;8.850;2024-02-26T11:38:19;0.00;;;0.00;;
24305;SDS011;12423;48.768;8.850;2024-02-26T11:40:48;0.00;;;0.00;;
24305;SDS011;12423;48.768;8.850;2024-02-26T11:43:15;3.95;;;0.32;;
24305;SDS011;12423;48.768;8.850;2024-02-26T11:45:49;0.13;;;0.13;;
24305;SDS011;12423;48.768;8.850;2024-02-26T11:48:21;0.00;;;0.00;;
24305;SDS011;12423;48.768;8.850;2024-02-26T11:52:36;0.00;;;0.00;;
24305;SDS011;12423;48.768;8.850;2024-02-26T11:57:37;0.32;;;0.25;;
24305;SDS011;12423;48.768;8.850;2024-02-26T12:00:12;0.00;;;0.00;;
24305;SDS011;12423;48.768;8.850;2024-02-26T12:02:49;0.00;;;0.00;;
24305;SDS011;12423;48.768;8.850;2024-02-26T12:05:19;0.20;;;0.20;;
24305;SDS011;12423;48.768;8.850;2024-02-26T12:07:54;0.10;;;0.10;;
24305;SDS011;12423;48.768;8.850;2024-02-26T12:10:23;0.15;;;0.10;;
24305;SDS011;12423;48.768;8.850;2024-02-26T12:12:58;0.32;;;0.32;;
24305;SDS011;12423;48.768;8.850;2024-02-26T12:15:30;0.00;;;0.00;;
24305;SDS011;12423;48.768;8.850;2024-02-26T12:18:00;0.00;;;0.00;;
24305;SDS011;12423;48.768;8.850;2024-02-26T12:20:28;0.13;;;0.08;;
24305;SDS011;12423;48.768;8.850;2024-02-26T12:22:57;0.00;;;0.00;;
24305;SDS011;12423;48.768;8.850;2024-02-26T12:27:53;0.00;;;0.00;;
24305;SDS011;12423;48.768;8.850;2024-02-26T12:30:20;0.00;;;0.00;;
24305;SDS011;12423;48.768;8.850;2024-02-26T12:32:48;0.10;;;0.10;;
24305;SDS011;12423;48.768;8.850;2024-02-26T12:35:17;0.10;;;0.10;;
24305;SDS011;12423;48.768;8.850;2024-02-26T12:37:45;0.05;;;0.05;;
24305;SDS011;12423;48.768;8.850;2024-02-26T12:40:15;0.08;;;0.08;;
24305;SDS011;12423;48.768;8.850;2024-02-26T12:42:42;0.30;;;0.30;;
24305;SDS011;12423;48.768;8.850;2024-02-26T12:45:10;0.10;;;0.10;;
24305;SDS011;12423;48.768;8.850;2024-02-26T12:47:39;0.25;;;0.25;;
24305;SDS011;12423;48.768;8.850;2024-02-26T12:50:07;0.00;;;0.00;;
24305;SDS011;12423;48.768;8.850;2024-02-26T12:52:37;0.00;;;0.00;;
24305;SDS011;12423;48.768;8.850;2024-02-26T12:55:06;0.00;;;0.00;;
24305;SDS011;12423;48.768;8.850;2024-02-26T12:57:37;0.00;;;0.00;;
24305;SDS011;12423;48.768;8.850;2024-02-26T13:00:05;0.00;;;0.00;;
24305;SDS011;12423;48.768;8.850;2024-02-26T13:02:35;0.20;;;0.20;;
24305;SDS011;12423;48.768;8.850;2024-02-26T13:05:03;0.43;;;0.25;;
24305;SDS011;12423;48.768;8.850;2024-02-26T13:07:31;0.03;;;0.03;;
24305;SDS011;12423;48.768;8.850;2024-02-26T13:09:59;0.00;;;0.00;;
24305;SDS011;12423;48.768;8.850;2024-02-26T13:12:27;0.00;;;0.00;;
24305;SDS011;12423;48.768;8.850;2024-02-26T13:14:59;0.10;;;0.10;;
24305;SDS011;12423;48.768;8.850;2024-02-26T13:17:27;0.10;;;0.10;;
24305;SDS011;12423;48.768;8.850;2024-02-26T13:19:58;0.00;;;0.00;;
24305;SDS011;12423;48.768;8.850;2024-02-26T13:22:26;0.00;;;0.00;;
24305;SDS011;12423;48.768;8.850;2024-02-26T13:24:56;0.80;;;0.35;;
24305;SDS011;12423;48.768;8.850;2024-02-26T13:27:24;0.00;;;0.00;;
24305;SDS011;12423;48.768;8.850;2024-02-26T13:30:03;0.10;;;0.10;;
24305;SDS011;12423;48.768;8.850;2024-02-26T13:32:32;0.10;;;0.10;;
24305;SDS011;12423;48.768;8.850;2024-02-26T13:35:06;0.20;;;0.20;;
24305;SDS011;12423;48.768;8.850;2024-02-26T13:37:34;3.83;;;0.98;;
24305;SDS011;12423;48.768;8.850;2024-02-26T13:40:04;0.32;;;0.32;;
24305;SDS011;12423;48.768;8.850;2024-02-26T13:42:32;0.00;;;0.00;;
24305;SDS011;12423;48.768;8.850;2024-02-26T13:45:00;0.05;;;0.05;;
24305;SDS011;12423;48.768;8.850;2024-02-26T13:47:29;0.00;;;0.00;;
24305;SDS011;12423;48.768;8.850;2024-02-26T13:49:59;0.08;;;0.08;;
24305;SDS011;12423;48.768;8.850;2024-02-26T13:52:28;0.00;;;0.00;;
24305;SDS011;12423;48.768;8.850;2024-02-26T13:54:58;0.00;;;0.00;;
24305;SDS011;12423;48.768;8.850;2024-02-26T13:57:26;0.10;;;0.10;;
24305;SDS011;12423;48.768;8.850;2024-02-26T13:59:54;3.88;;;1.90;;
24305;SDS011;12423;48.768;8.850;2024-02-26T14:02:22;2.28;;;1.10;;
24305;SDS011;12423;48.768;8.850;2024-02-26T14:04:50;1.63;;;0.80;;
24305;SDS011;12423;48.768;8.850;2024-02-26T14:07:18;2.58;;;0.82;;
24305;SDS011;12423;48.768;8.850;2024-02-26T14:09:46;1.88;;;0.93;;
24305;SDS011;12423;48.768;8.850;2024-02-26T14:12:16;2.25;;;0.93;;
24305;SDS011;12423;48.768;8.850;2024-02-26T14:14:48;1.92;;;0.90;;
24305;SDS011;12423;48.768;8.850;2024-02-26T14:17:16;4.05;;;1.48;;
24305;SDS011;12423;48.768;8.850;2024-02-26T14:19:43;13.20;;;6.80;;
24305;SDS011;12423;48.768;8.850;2024-02-26T14:22:12;5.55;;;2.70;;
24305;SDS011;12423;48.768;8.850;2024-02-26T14:24:41;2.20;;;1.17;;
24305;SDS011;12423;48.768;8.850;2024-02-26T14:27:09;3.70;;;1.65;;
24305;SDS011;12423;48.768;8.850;2024-02-26T14:29:37;5.40;;;2.85;;
24305;SDS011;12423;48.768;8.850;2024-02-26T14:32:06;2.78;;;1.08;;
24305;SDS011;12423;48.768;8.850;2024-02-26T14:34:34;2.85;;;0.80;;
24305;SDS011;12423;48.768;8.850;2024-02-26T14:37:01;1.95;;;0.90;;
24305;SDS011;12423;48.768;8.850;2024-02-26T14:39:30;2.22;;;0.70;;
24305;SDS011;12423;48.768;8.850;2024-02-26T14:41:58;1.40;;;0.70;;
24305;SDS011;12423;48.768;8.850;2024-02-26T14:44:26;3.78;;;1.02;;
24305;SDS011;12423;48.768;8.850;2024-02-26T14:46:53;2.50;;;0.80;;
24305;SDS011;12423;48.768;8.850;2024-02-26T14:49:21;2.45;;;1.17;;
24305;SDS011;12423;48.768;8.850;2024-02-26T14:51:49;2.42;;;0.55;;
24305;SDS011;12423;48.768;8.850;2024-02-26T14:54:16;1.77;;;0.80;;
24305;SDS011;12423;48.768;8.850;2024-02-26T14:56:45;2.15;;;1.05;;
24305;SDS011;12423;48.768;8.850;2024-02-26T14:59:14;1.25;;;0.73;;
24305;SDS011;12423;48.768;8.850;2024-02-26T15:01:42;4.43;;;2.15;;
24305;SDS011;12423;48.768;8.850;2024-02-26T15:06:38;1.50;;;0.73;;
24305;SDS011;12423;48.768;8.850;2024-02-26T15:09:06;2.53;;;0.85;;
24305;SDS011;12423;48.768;8.850;2024-02-26T15:11:37;1.50;;;0.77;;
24305;SDS011;12423;48.768;8.850;2024-02-26T15:14:06;1.65;;;0.70;;
24305;SDS011;12423;48.768;8.850;2024-02-26T15:16:34;1.17;;;0.70;;
24305;SDS011;12423;48.768;8.850;2024-02-26T15:19:01;2.08;;;0.77;;
24305;SDS011;12423;48.768;8.850;2024-02-26T15:21:29;2.60;;;0.80;;
24305;SDS011;12423;48.768;8.850;2024-02-26T15:23:57;2.05;;;0.90;;